createdAt,value
2023-04-04T00:00:12.483Z,103016.53
2023-04-04T00:02:40.451Z,103019.31
2023-04-04T00:05:10.269Z,103022.00
2023-04-04T00:07:38.016Z,103025.69
2023-04-04T00:10:06.410Z,103022.13
2023-04-04T00:12:34.178Z,103020.66
2023-04-04T00:15:02.825Z,103022.56
2023-04-04T00:17:30.657Z,103014.47
2023-04-04T00:19:58.704Z,103009.91
2023-04-04T00:22:28.284Z,103012.63
2023-04-04T00:24:56.048Z,103009.06
2023-04-04T00:27:23.884Z,103003.72
2023-04-04T00:29:51.706Z,103009.94
2023-04-04T00:32:19.544Z,103010.66
2023-04-04T00:34:47.310Z,103008.13
2023-04-04T00:37:14.990Z,103000.94
2023-04-04T00:39:44.764Z,102997.28
2023-04-04T00:42:12.828Z,102989.31
2023-04-04T00:44:40.549Z,102992.03
2023-04-04T00:47:08.360Z,102984.94
2023-04-04T00:49:37.818Z,102985.84
2023-04-04T00:52:07.415Z,102985.84
2023-04-04T00:54:36.034Z,102983.25
2023-04-04T00:57:08.109Z,102990.41
2023-04-04T00:59:36.250Z,102989.56
2023-04-04T01:02:04.205Z,102988.75
2023-04-04T01:04:32.081Z,102981.66
2023-04-04T01:07:00.553Z,102983.47
2023-04-04T01:09:28.831Z,102988.13
2023-04-04T01:11:57.320Z,102990.72
2023-04-04T01:14:26.531Z,102990.09
2023-04-04T01:16:55.003Z,102999.19
2023-04-04T01:19:30.085Z,102993.00
2023-04-04T01:22:00.545Z,102984.09
2023-04-04T01:24:33.710Z,102989.53
2023-04-04T01:27:03.019Z,102980.63
2023-04-04T01:29:31.020Z,102986.06
2023-04-04T01:32:05.207Z,102988.88
2023-04-04T01:34:43.471Z,102989.09
2023-04-04T01:37:19.476Z,102991.09
2023-04-04T01:39:50.731Z,102985.84
2023-04-04T01:42:21.056Z,102975.13
2023-04-04T01:44:49.010Z,102983.91
2023-04-04T01:47:16.984Z,102985.75
2023-04-04T01:49:44.736Z,102984.19
2023-04-04T01:52:12.507Z,102983.41
2023-04-04T01:54:40.473Z,102985.28
2023-04-04T01:57:08.535Z,102989.78
2023-04-04T01:59:37.705Z,102980.84
2023-04-04T02:02:05.797Z,102982.59
2023-04-04T02:04:34.054Z,102978.25
2023-04-04T02:07:01.965Z,102980.94
2023-04-04T02:09:29.720Z,102989.94
2023-04-04T02:11:57.474Z,102980.16
2023-04-04T02:14:25.186Z,102981.03
2023-04-04T02:16:54.340Z,102988.22
2023-04-04T02:19:22.023Z,102982.84
2023-04-04T02:21:49.730Z,102992.66
2023-04-04T02:24:17.416Z,102997.31
2023-04-04T02:26:45.141Z,103003.53
2023-04-04T02:29:13.237Z,102998.13
2023-04-04T02:31:41.060Z,103008.03
2023-04-04T02:34:10.191Z,102999.09
2023-04-04T02:36:38.116Z,103008.91
2023-04-04T02:39:05.947Z,103003.56
2023-04-04T02:41:33.742Z,102991.03
2023-04-04T02:44:01.473Z,102991.94
2023-04-04T02:46:29.231Z,102982.16
2023-04-04T02:48:57.460Z,102989.41
2023-04-04T02:51:26.589Z,102990.31
2023-04-04T02:53:54.318Z,102985.00
2023-04-04T02:56:22.105Z,102984.19
2023-04-04T02:58:49.867Z,102982.41
2023-04-04T03:01:17.765Z,102972.50
2023-04-04T03:03:46.590Z,102972.50
2023-04-04T03:06:14.917Z,102971.59
2023-04-04T03:08:44.035Z,102971.59
2023-04-04T03:11:11.933Z,102963.50
2023-04-04T03:13:39.619Z,102951.88
2023-04-04T03:16:07.821Z,102947.47
2023-04-04T03:18:36.007Z,102954.72
2023-04-04T03:21:03.819Z,102954.84
2023-04-04T03:23:31.534Z,102949.53
2023-04-04T03:26:00.792Z,102955.81
2023-04-04T03:28:29.249Z,102958.44
2023-04-04T03:30:57.636Z,102956.63
2023-04-04T03:33:25.476Z,102965.56
2023-04-04T03:35:53.211Z,102968.19
2023-04-04T03:38:20.970Z,102963.78
2023-04-04T03:40:48.692Z,102970.16
2023-04-04T03:43:17.842Z,102973.06
2023-04-04T03:45:45.737Z,102971.41
2023-04-04T03:48:13.770Z,102968.06
2023-04-04T03:50:41.767Z,102968.09
2023-04-04T03:53:09.809Z,102976.19
2023-04-04T03:55:37.522Z,102968.22
2023-04-04T03:58:05.349Z,102971.00
2023-04-04T04:00:37.328Z,102974.72
2023-04-04T04:03:05.200Z,102972.94
2023-04-04T04:05:33.022Z,102971.22
2023-04-04T04:08:00.854Z,102966.72
2023-04-04T04:10:28.620Z,102958.78
2023-04-04T04:12:57.054Z,102956.22
2023-04-04T04:15:24.778Z,102963.38
2023-04-04T04:17:53.893Z,102966.06
2023-04-04T04:20:21.659Z,102972.38
2023-04-04T04:22:51.011Z,102976.00
2023-04-04T04:25:20.494Z,102972.50
2023-04-04T04:27:48.259Z,102964.47
2023-04-04T04:30:16.239Z,102970.72
2023-04-04T04:32:43.944Z,102979.56
2023-04-04T04:35:13.115Z,102976.09
2023-04-04T04:37:40.975Z,102978.88
2023-04-04T04:40:10.616Z,102978.97
2023-04-04T04:42:38.377Z,102980.75
2023-04-04T04:45:07.295Z,102981.63
2023-04-04T04:47:35.048Z,102986.06
2023-04-04T04:50:02.869Z,102983.38
2023-04-04T04:52:32.292Z,102986.97
2023-04-04T04:55:00.008Z,102983.44
2023-04-04T04:57:28.352Z,102986.09
2023-04-04T04:59:56.071Z,102979.84
2023-04-04T05:02:24.023Z,102985.19
2023-04-04T05:04:51.854Z,102977.22
2023-04-04T05:07:19.564Z,102976.34
2023-04-04T05:09:48.669Z,102981.75
2023-04-04T05:12:16.446Z,102987.13
2023-04-04T05:14:44.660Z,102990.75
2023-04-04T05:17:12.342Z,102994.31
2023-04-04T05:19:40.107Z,102987.16
2023-04-04T05:22:08.482Z,102996.94
2023-04-04T05:24:36.261Z,102997.84
2023-04-04T05:27:05.644Z,102998.72
2023-04-04T05:29:33.412Z,102993.38
2023-04-04T05:32:01.205Z,102990.66
2023-04-04T05:34:28.962Z,102992.47
2023-04-04T05:36:56.702Z,102990.75
2023-04-04T05:39:24.497Z,102999.56
2023-04-04T05:41:52.232Z,102997.75
2023-04-04T05:44:21.362Z,103001.38
2023-04-04T05:46:49.141Z,103001.41
2023-04-04T05:49:17.003Z,102990.75
2023-04-04T05:51:44.764Z,103002.28
2023-04-04T05:54:12.512Z,103004.94
2023-04-04T05:56:40.445Z,103012.16
2023-04-04T05:59:08.357Z,103014.88
2023-04-04T06:01:37.481Z,103005.03
2023-04-04T06:04:05.364Z,103006.78
2023-04-04T06:06:33.205Z,103005.91
2023-04-04T06:09:00.962Z,102997.81
2023-04-04T06:11:28.971Z,102997.75
2023-04-04T06:13:56.741Z,102995.91
2023-04-04T06:16:24.628Z,103002.94
2023-04-04T06:18:53.805Z,102999.34
2023-04-04T06:21:21.555Z,102993.00
2023-04-04T06:23:49.332Z,102995.56
2023-04-04T06:26:17.106Z,102986.56
2023-04-04T06:28:49.418Z,102992.72
2023-04-04T06:31:17.300Z,102994.41
2023-04-04T06:33:45.480Z,102998.72
2023-04-04T06:36:14.712Z,102996.97
2023-04-04T06:38:42.534Z,103002.19
2023-04-04T06:41:10.296Z,102993.91
2023-04-04T06:43:38.037Z,103001.75
2023-04-04T06:46:06.721Z,102996.22
2023-04-04T06:48:34.479Z,102996.91
2023-04-04T06:51:02.325Z,102996.63
2023-04-04T06:53:32.270Z,102998.16
2023-04-04T06:56:00.068Z,103005.00
2023-04-04T06:58:27.858Z,103010.97
2023-04-04T07:00:56.566Z,103016.16
2023-04-04T07:03:24.754Z,103019.66
2023-04-04T07:05:52.559Z,103012.22
2023-04-04T07:08:20.435Z,103016.47
2023-04-04T07:10:49.552Z,103015.19
2023-04-04T07:13:17.300Z,103010.28
2023-04-04T07:15:48.785Z,103013.50
2023-04-04T07:18:16.672Z,103017.66
2023-04-04T07:20:44.684Z,103020.91
2023-04-04T07:23:12.423Z,103012.44
2023-04-04T07:25:41.470Z,103012.78
2023-04-04T07:28:13.518Z,103016.69
2023-04-04T07:30:41.865Z,103009.97
2023-04-04T07:33:10.015Z,103014.06
2023-04-04T07:35:38.047Z,103022.00
2023-04-04T07:38:06.289Z,103022.53
2023-04-04T07:40:34.110Z,103017.31
2023-04-04T07:43:01.823Z,103021.25
2023-04-04T07:45:31.184Z,103016.19
2023-04-04T07:47:59.395Z,103011.31
2023-04-04T07:50:27.358Z,103006.53
2023-04-04T07:52:56.083Z,102997.88
2023-04-04T07:55:25.258Z,102996.44
2023-04-04T07:57:53.512Z,102999.34
2023-04-04T08:00:22.667Z,102994.34
2023-04-04T08:02:54.717Z,102991.72
2023-04-04T08:05:22.692Z,102989.66
2023-04-04T08:07:50.563Z,102998.16
2023-04-04T08:10:19.193Z,102996.19
2023-04-04T08:12:47.134Z,102997.47
2023-04-04T08:15:15.030Z,102997.97
2023-04-04T08:17:43.520Z,102992.88
2023-04-04T08:20:14.315Z,102994.47
2023-04-04T08:22:43.393Z,102987.00
2023-04-04T08:25:11.319Z,102990.38
2023-04-04T08:27:41.056Z,102992.28
2023-04-04T08:30:10.183Z,102991.13
2023-04-04T08:32:37.971Z,102995.22
2023-04-04T08:35:06.474Z,102990.38
2023-04-04T08:37:36.161Z,102989.16
2023-04-04T08:40:04.292Z,102988.97
2023-04-04T08:42:35.801Z,102987.66
2023-04-04T08:45:05.412Z,102987.91
2023-04-04T08:47:36.096Z,102984.41
2023-04-04T08:50:07.229Z,102987.63
2023-04-04T08:52:36.820Z,102983.41
2023-04-04T08:55:06.284Z,102989.19
2023-04-04T08:57:34.325Z,102982.13
2023-04-04T09:00:03.224Z,102978.72
2023-04-04T09:02:35.988Z,102976.75
2023-04-04T09:05:06.725Z,102978.66
2023-04-04T09:07:38.769Z,102982.91
2023-04-04T09:10:09.855Z,102992.47
2023-04-04T09:12:39.066Z,102990.41
2023-04-04T09:15:07.818Z,102988.34
2023-04-04T09:17:35.735Z,102983.22
2023-04-04T09:20:05.103Z,102987.66
2023-04-04T09:22:32.922Z,102989.91
2023-04-04T09:25:02.036Z,102994.22
2023-04-04T09:27:29.779Z,102987.50
2023-04-04T09:30:05.685Z,102991.88
2023-04-04T09:32:34.903Z,102992.41
2023-04-04T09:35:03.344Z,102992.22
2023-04-04T09:37:31.721Z,102984.84
2023-04-04T09:39:59.560Z,102991.44
2023-04-04T09:42:29.296Z,102980.25
2023-04-04T09:44:57.549Z,102986.25
2023-04-04T09:49:59.524Z,102981.03
2023-04-04T09:52:27.918Z,102963.81
2023-04-04T09:54:59.796Z,102966.16
2023-04-04T09:57:30.469Z,102967.13
2023-04-04T10:00:00.144Z,102964.75
2023-04-04T10:02:28.557Z,102962.09
2023-04-04T10:05:05.880Z,102967.63
2023-04-04T10:07:34.672Z,102966.75
2023-04-04T10:10:04.984Z,102966.41
2023-04-04T10:12:34.670Z,102964.41
2023-04-04T10:15:03.358Z,102966.41
2023-04-04T10:17:32.213Z,102966.81
2023-04-04T10:20:02.343Z,102968.03
2023-04-04T10:22:30.459Z,102959.03
2023-04-04T10:24:59.065Z,102954.34
2023-04-04T10:27:27.386Z,102962.75
2023-04-04T10:29:57.251Z,102952.47
2023-04-04T10:32:34.782Z,102952.47
2023-04-04T10:35:05.235Z,102946.16
2023-04-04T10:37:38.500Z,102944.53
2023-04-04T10:40:10.477Z,102950.47
2023-04-04T10:42:40.853Z,102959.34
2023-04-04T10:45:20.385Z,102954.88
2023-04-04T10:47:49.939Z,102950.34
2023-04-04T10:50:17.694Z,102946.13
2023-04-04T10:52:46.733Z,102954.34
2023-04-04T10:55:15.979Z,102946.59
2023-04-04T10:57:47.265Z,102926.50
2023-04-04T11:00:19.338Z,102926.84
2023-04-04T11:02:49.984Z,102933.25
2023-04-04T11:05:22.916Z,102930.69
2023-04-04T11:08:07.627Z,102926.25
2023-04-04T11:10:38.021Z,102914.84
2023-04-04T11:13:14.036Z,102914.25
2023-04-04T11:15:55.844Z,102917.56
2023-04-04T11:18:45.568Z,102907.81
2023-04-04T11:21:16.748Z,102909.22
2023-04-04T11:24:15.789Z,102914.88
2023-04-04T11:26:45.462Z,102905.41
2023-04-04T11:29:22.273Z,102911.00
2023-04-04T11:31:53.308Z,102893.16
2023-04-04T11:34:34.315Z,102893.50
2023-04-04T11:37:17.609Z,102896.41
2023-04-04T11:39:50.694Z,102891.03
2023-04-04T11:42:21.928Z,102891.81
2023-04-04T11:45:04.018Z,102896.03
2023-04-04T11:47:33.752Z,102884.09
2023-04-04T11:50:02.306Z,102886.53
2023-04-04T11:52:35.041Z,102885.09
2023-04-04T11:55:02.905Z,102881.53
2023-04-04T11:57:30.667Z,102883.63
2023-04-04T11:59:58.805Z,102875.63
2023-04-04T12:02:31.893Z,102875.41
2023-04-04T12:05:01.642Z,102867.38
2023-04-04T12:07:30.524Z,102871.44
2023-04-04T12:09:58.983Z,102862.22
2023-04-04T12:12:27.612Z,102853.19
2023-04-04T12:15:06.168Z,102858.34
2023-04-04T12:17:40.698Z,102849.28
2023-04-04T12:20:11.598Z,102853.06
2023-04-04T12:22:39.763Z,102853.66
2023-04-04T12:25:08.683Z,102851.34
2023-04-04T12:27:37.976Z,102851.44
2023-04-04T12:30:11.253Z,102850.06
2023-04-04T12:32:39.360Z,102846.00
2023-04-04T12:35:08.399Z,102843.97
2023-04-04T12:37:37.977Z,102832.38
2023-04-04T12:40:07.458Z,102841.63
2023-04-04T12:42:35.989Z,102839.28
2023-04-04T12:45:05.294Z,102826.78
2023-04-04T12:47:33.149Z,102824.53
2023-04-04T12:50:01.170Z,102825.50
2023-04-04T12:52:32.302Z,102819.47
2023-04-04T12:55:09.812Z,102809.28
2023-04-04T12:57:40.523Z,102804.75
2023-04-04T13:00:09.685Z,102812.03
2023-04-04T13:02:38.927Z,102806.16
2023-04-04T13:05:08.283Z,102809.34
2023-04-04T13:07:42.974Z,102805.00
2023-04-04T13:10:15.891Z,102802.59
2023-04-04T13:12:58.439Z,102797.78
2023-04-04T13:15:50.362Z,102790.50
2023-04-04T13:18:21.169Z,102785.84
2023-04-04T13:20:49.098Z,102783.16
2023-04-04T13:23:17.638Z,102777.16
2023-04-04T13:25:47.153Z,102771.03
2023-04-04T13:28:15.084Z,102771.91
2023-04-04T13:30:46.783Z,102767.75
2023-04-04T13:33:14.695Z,102756.19
2023-04-04T13:35:43.887Z,102758.91
2023-04-04T13:38:12.744Z,102748.00
2023-04-04T13:40:40.782Z,102749.88
2023-04-04T13:43:11.328Z,102755.00
2023-04-04T13:45:39.572Z,102757.53
2023-04-04T13:48:07.677Z,102741.47
2023-04-04T13:50:37.213Z,102740.03
2023-04-04T13:53:05.143Z,102737.22
2023-04-04T13:55:33.009Z,102725.94
2023-04-04T13:58:00.836Z,102729.44
2023-04-04T14:00:29.970Z,102729.44
2023-04-04T14:02:58.755Z,102721.13
2023-04-04T14:05:26.626Z,102711.75
2023-04-04T14:07:54.484Z,102715.69
2023-04-04T14:10:22.262Z,102703.31
2023-04-04T14:12:50.109Z,102711.72
2023-04-04T14:15:18.664Z,102705.28
2023-04-04T14:17:47.846Z,102694.44
2023-04-04T14:20:16.665Z,102691.88
2023-04-04T14:22:44.727Z,102694.09
2023-04-04T14:25:12.532Z,102698.13
2023-04-04T14:27:40.397Z,102695.09
2023-04-04T14:30:09.186Z,102689.19
2023-04-04T14:32:37.024Z,102692.63
2023-04-04T14:35:07.017Z,102695.91
2023-04-04T14:37:34.753Z,102697.03
2023-04-04T14:40:02.691Z,102694.00
2023-04-04T14:42:30.491Z,102692.91
2023-04-04T14:44:58.631Z,102684.06
2023-04-04T14:47:26.522Z,102684.94
2023-04-04T14:49:54.990Z,102691.53
2023-04-04T14:52:25.112Z,102682.63
2023-04-04T14:54:52.951Z,102684.38
2023-04-04T14:57:20.981Z,102673.28
2023-04-04T14:59:48.781Z,102682.41
2023-04-04T15:02:16.821Z,102668.25
2023-04-04T15:04:44.813Z,102670.97
2023-04-04T15:07:12.795Z,102672.03
2023-04-04T15:09:41.910Z,102667.31
2023-04-04T15:12:09.783Z,102658.16
2023-04-04T15:14:37.607Z,102647.03
2023-04-04T15:17:05.518Z,102652.63
2023-04-04T15:19:33.468Z,102652.34
2023-04-04T15:22:01.600Z,102647.66
2023-04-04T15:24:29.407Z,102653.53
2023-04-04T15:26:58.573Z,102645.03
2023-04-04T15:29:26.328Z,102639.56
2023-04-04T15:31:54.159Z,102637.63
2023-04-04T15:34:21.910Z,102640.09
2023-04-04T15:36:50.819Z,102634.91
2023-04-04T15:39:18.774Z,102633.16
2023-04-04T15:41:46.556Z,102643.31
2023-04-04T15:44:16.493Z,102640.59
2023-04-04T15:46:45.438Z,102634.75
2023-04-04T15:49:13.211Z,102634.75
2023-04-04T15:51:43.712Z,102633.16
2023-04-04T15:54:11.579Z,102635.66
2023-04-04T15:56:39.374Z,102632.50
2023-04-04T15:59:07.547Z,102628.84
2023-04-04T16:01:37.495Z,102625.81
2023-04-04T16:04:05.527Z,102628.34
2023-04-04T16:06:33.301Z,102619.44
2023-04-04T16:09:01.218Z,102622.56
2023-04-04T16:11:28.967Z,102622.25
2023-04-04T16:13:56.771Z,102618.97
2023-04-04T16:16:24.644Z,102611.34
2023-04-04T16:18:53.859Z,102611.97
2023-04-04T16:21:21.619Z,102613.72
2023-04-04T16:23:49.380Z,102613.72
2023-04-04T16:26:17.244Z,102618.06
2023-04-04T16:28:46.945Z,102603.09
2023-04-04T16:31:15.455Z,102608.66
2023-04-04T16:33:43.537Z,102605.69
2023-04-04T16:36:12.790Z,102597.53
2023-04-04T16:38:40.566Z,102608.84
2023-04-04T16:41:08.416Z,102607.47
2023-04-04T16:43:36.360Z,102602.00
2023-04-04T16:46:04.242Z,102604.59
2023-04-04T16:48:32.040Z,102606.22
2023-04-04T16:50:59.827Z,102602.50
2023-04-04T16:53:29.018Z,102607.44
2023-04-04T16:55:56.795Z,102610.81
2023-04-04T16:58:24.571Z,102607.31
2023-04-04T17:00:52.430Z,102602.75
2023-04-04T17:03:20.212Z,102596.13
2023-04-04T17:05:48.230Z,102599.78
2023-04-04T17:08:16.021Z,102597.94
2023-04-04T17:10:45.226Z,102594.34
2023-04-04T17:13:13.004Z,102587.19
2023-04-04T17:15:40.942Z,102587.19
2023-04-04T17:18:09.023Z,102583.25
2023-04-04T17:20:38.053Z,102580.22
2023-04-04T17:23:06.175Z,102582.22
2023-04-04T17:25:33.930Z,102591.03
2023-04-04T17:28:04.230Z,102589.06
2023-04-04T17:30:32.212Z,102583.19
2023-04-04T17:33:00.138Z,102582.69
2023-04-04T17:35:28.043Z,102590.28
2023-04-04T17:37:56.067Z,102592.72
2023-04-04T17:40:23.873Z,102583.03
2023-04-04T17:42:51.810Z,102585.75
2023-04-04T17:45:21.082Z,102590.81
2023-04-04T17:47:49.076Z,102592.56
2023-04-04T17:50:16.989Z,102592.41
2023-04-04T17:52:44.726Z,102591.19
2023-04-04T17:55:12.731Z,102586.66
2023-04-04T17:57:41.075Z,102592.09
2023-04-04T18:00:11.025Z,102588.28
2023-04-04T18:02:40.454Z,102584.91
2023-04-04T18:05:10.234Z,102583.06
2023-04-04T18:07:38.020Z,102589.84
2023-04-04T18:10:06.802Z,102595.09
2023-04-04T18:12:35.816Z,102594.63
2023-04-04T18:15:04.240Z,102585.59
2023-04-04T18:17:33.354Z,102592.09
2023-04-04T18:20:04.229Z,102601.44
2023-04-04T18:22:32.361Z,102601.03
2023-04-04T18:25:00.594Z,102599.75
2023-04-04T18:27:28.332Z,102599.25
2023-04-04T18:29:56.091Z,102602.28
2023-04-04T18:32:26.368Z,102596.06
2023-04-04T18:34:54.178Z,102594.50
2023-04-04T18:37:23.306Z,102598.56
2023-04-04T18:39:51.177Z,102602.72
2023-04-04T18:42:18.973Z,102598.09
2023-04-04T18:44:46.984Z,102592.09
2023-04-04T18:47:14.803Z,102605.59
2023-04-04T18:49:42.585Z,102606.16
2023-04-04T18:52:10.511Z,102608.06
2023-04-04T18:54:39.752Z,102608.41
2023-04-04T18:57:07.532Z,102614.00
2023-04-04T18:59:35.305Z,102615.00
2023-04-04T19:02:03.207Z,102614.31
2023-04-04T19:04:31.738Z,102615.41
2023-04-04T19:07:06.295Z,102614.31
2023-04-04T19:09:34.400Z,102620.16
2023-04-04T19:12:03.960Z,102619.94
2023-04-04T19:14:31.779Z,102626.56
2023-04-04T19:16:59.695Z,102621.59
2023-04-04T19:19:27.579Z,102631.09
2023-04-04T19:21:55.404Z,102624.00
2023-04-04T19:24:23.166Z,102625.84
2023-04-04T19:26:50.957Z,102617.97
2023-04-04T19:29:22.659Z,102619.91
2023-04-04T19:31:50.552Z,102621.91
2023-04-04T19:34:18.672Z,102617.69
2023-04-04T19:36:46.607Z,102621.69
2023-04-04T19:39:20.763Z,102619.50
2023-04-04T19:41:48.540Z,102622.34
2023-04-04T19:44:21.315Z,102621.00
2023-04-04T19:46:49.356Z,102616.88
2023-04-04T19:49:17.958Z,102609.09
2023-04-04T19:51:53.529Z,102613.59
2023-04-04T19:54:26.293Z,102600.25
2023-04-04T19:57:00.315Z,102607.44
2023-04-04T19:59:55.796Z,102604.16
2023-04-04T20:02:54.467Z,102608.84
2023-04-04T20:05:52.019Z,102608.22
2023-04-04T20:08:19.764Z,102604.72
2023-04-04T20:10:47.686Z,102607.03
2023-04-04T20:13:15.492Z,102603.44
2023-04-04T20:16:06.588Z,102600.97
2023-04-04T20:18:36.274Z,102593.91
2023-04-04T20:21:07.644Z,102594.09
2023-04-04T20:23:46.593Z,102598.81
2023-04-04T20:26:34.971Z,102607.09
2023-04-04T20:29:02.951Z,102600.16
2023-04-04T20:31:35.929Z,102595.97
2023-04-04T20:34:06.887Z,102591.66
2023-04-04T20:36:42.883Z,102597.06
2023-04-04T20:39:39.182Z,102599.94
2023-04-04T20:42:29.951Z,102601.81
2023-04-04T20:45:00.632Z,102593.88
2023-04-04T20:47:44.769Z,102601.19
2023-04-04T20:50:43.516Z,102604.09
2023-04-04T20:53:18.581Z,102604.50
2023-04-04T20:55:46.355Z,102606.38
2023-04-04T20:58:27.974Z,102602.09
2023-04-04T21:00:56.910Z,102600.44
2023-04-04T21:03:32.464Z,102594.44
2023-04-04T21:06:03.521Z,102597.22
2023-04-04T21:08:39.213Z,102592.94
2023-04-04T21:11:07.852Z,102589.56
2023-04-04T21:13:37.890Z,102595.19
2023-04-04T21:16:09.664Z,102589.06
2023-04-04T21:18:39.964Z,102584.75
2023-04-04T21:21:13.077Z,102582.94
2023-04-04T21:23:45.811Z,102586.59
2023-04-04T21:26:22.614Z,102572.06
2023-04-04T21:28:51.401Z,102567.69
2023-04-04T21:31:23.850Z,102572.28
2023-04-04T21:33:54.775Z,102564.47
2023-04-04T21:36:29.787Z,102560.03
2023-04-04T21:38:59.359Z,102559.25
2023-04-04T21:41:28.394Z,102564.69
2023-04-04T21:43:58.112Z,102564.75
2023-04-04T21:46:27.730Z,102570.16
2023-04-04T21:48:57.505Z,102569.34
2023-04-04T21:51:26.208Z,102571.41
2023-04-04T21:53:54.722Z,102562.44
2023-04-04T21:56:27.108Z,102566.94
2023-04-04T21:58:55.516Z,102565.19
2023-04-04T22:01:23.395Z,102557.31
2023-04-04T22:03:51.250Z,102559.19
2023-04-04T22:06:22.243Z,102564.97
2023-04-04T22:08:50.030Z,102566.31
2023-04-04T22:11:19.307Z,102559.44
2023-04-04T22:13:48.185Z,102562.31
2023-04-04T22:16:16.999Z,102561.41
2023-04-04T22:18:46.897Z,102559.72
2023-04-04T22:21:15.560Z,102561.84
2023-04-04T22:23:44.740Z,102559.47
2023-04-04T22:26:15.037Z,102559.75
2023-04-04T22:28:45.801Z,102566.31
2023-04-04T22:31:13.861Z,102562.78
2023-04-04T22:33:41.809Z,102563.88
2023-04-04T22:36:10.364Z,102557.75
2023-04-04T22:38:39.333Z,102561.47
2023-04-04T22:41:08.432Z,102557.00
2023-04-04T22:43:36.199Z,102560.56
2023-04-04T22:46:04.003Z,102555.44
2023-04-04T22:48:31.775Z,102549.28
2023-04-04T22:51:02.797Z,102546.59
2023-04-04T22:53:30.545Z,102549.41
2023-04-04T22:56:00.667Z,102544.94
2023-04-04T22:58:29.803Z,102540.50
2023-04-04T23:00:57.615Z,102538.53
2023-04-04T23:03:25.366Z,102532.28
2023-04-04T23:05:53.077Z,102534.97
2023-04-04T23:08:20.968Z,102537.59
2023-04-04T23:10:48.709Z,102540.28
2023-04-04T23:13:16.488Z,102541.22
2023-04-04T23:15:45.649Z,102544.00
2023-04-04T23:18:13.528Z,102543.41
2023-04-04T23:20:42.626Z,102542.66
2023-04-04T23:23:10.656Z,102543.88
2023-04-04T23:25:38.413Z,102538.59
2023-04-04T23:28:06.218Z,102537.00
2023-04-04T23:30:34.180Z,102535.16
2023-04-04T23:33:03.242Z,102538.75
2023-04-04T23:35:31.160Z,102536.91
2023-04-04T23:37:58.910Z,102531.59
2023-04-04T23:40:26.694Z,102525.41
2023-04-04T23:42:54.390Z,102524.66
2023-04-04T23:45:22.343Z,102527.41
2023-04-04T23:47:50.160Z,102528.28
2023-04-04T23:50:19.506Z,102522.97
2023-04-04T23:52:47.283Z,102524.81
2023-04-04T23:55:17.033Z,102518.59
2023-04-04T23:57:44.977Z,102522.28
